Time,TemperatureF,DewpointF,PressureIn,WindDirection,WindDirectionDegrees,WindSpeedMPH,WindSpeedGustMPH,Humidity,HourlyPrecipIn,Conditions,Clouds,dailyrainin,SoftwareType,DateUTC
2013-04-23 00:00:00,55.1,55.1,30.15,North,350,19.9,26.7,100,0.00, ,,-99.99,VWS V12.07,2013-04-23 04:00:00,
2013-04-23 00:01:00,54.6,54.6,30.15,WNW,301,20.3,26.7,100,0.00, ,,-99.99,VWS V12.07,2013-04-23 04:01:00,
2013-04-23 00:04:00,54.4,54.4,30.15,NNW,343,15.0,26.7,100,0.00, ,,-99.99,VWS V12.07,2013-04-23 04:04:00,
2013-04-23 00:05:00,54.5,54.5,30.15,North,351,20.1,28.5,100,0.00, ,,-99.99,VWS V12.07,2013-04-23 04:05:00,
2013-04-23 00:07:00,54.4,54.4,30.15,NNW,332,16.8,28.5,100,0.00, ,,-99.99,VWS V12.07,2013-04-23 04:07:00,
2013-04-23 00:12:00,54.4,54.4,30.15,NNW,347,19.0,28.5,100,0.00, ,,-99.99,VWS V12.07,2013-04-23 04:12:00,
2013-04-23 00:17:00,54.3,54.3,30.15,North,354,16.3,26.7,100,0.00, ,,-99.99,VWS V12.07,2013-04-23 04:17:00,
2013-04-23 00:22:00,54.5,54.5,30.15,NNW,334,17.0,30.3,100,0.00, ,,-99.99,VWS V12.07,2013-04-23 04:22:00,
2013-04-23 00:27:00,54.5,54.5,30.15,NNW,344,16.1,30.3,100,0.00, ,,-99.99,VWS V12.07,2013-04-23 04:27:00,
2013-04-23 00:28:00,54.5,54.5,30.15,NW,323,13.1,30.3,100,0.00, ,,-99.99,VWS V12.07,2013-04-23 04:28:00,
2013-04-23 00:33:00,54.6,54.6,30.15,NNW,347,17.0,30.3,100,0.00, ,,-99.99,VWS V12.07,2013-04-23 04:33:00,
2013-04-23 00:38:00,54.3,54.3,30.15,NNW,347,17.1,26.6,100,0.00, ,,-99.99,VWS V12.07,2013-04-23 04:38:00,
2013-04-23 00:43:00,54.6,54.6,30.15,North,353,13.7,26.6,100,0.00, ,,-99.99,VWS V12.07,2013-04-23 04:43:00,
2013-04-23 00:48:00,54.3,54.3,30.15,NNW,339,17.7,29.9,100,0.00, ,,-99.99,VWS V12.07,2013-04-23 04:48:00,
2013-04-23 00:53:00,54.2,54.2,30.15,North,360,13.1,29.9,100,0.00, ,,-99.99,VWS V12.07,2013-04-23 04:53:00,
2013-04-23 00:58:00,54.5,54.5,30.15,North,5,22.2,22.2,100,0.00, ,,-99.99,VWS V12.07,2013-04-23 04:58:00,
2013-04-23 01:03:00,54.2,54.2,30.15,North,358,21.7,28.1,100,0.00, ,,-99.99,VWS V12.07,2013-04-23 05:03:00,
2013-04-23 01:08:00,54.3,54.3,30.14,NNW,332,16.6,28.1,100,0.00, ,,-99.99,VWS V12.07,2013-04-23 05:08:00,
2013-04-23 01:13:00,54.5,54.5,30.14,North,1,15.5,28.1,100,0.00, ,,-99.99,VWS V12.07,2013-04-23 05:13:00,
2013-04-23 01:18:00,54.6,54.6,30.14,NNW,332,14.1,23.1,100,0.00, ,,-99.99,VWS V12.07,2013-04-23 05:18:00,
2013-04-23 01:23:00,54.4,54.4,30.13,NNW,343,15.5,25.5,100,0.00, ,,-99.99,VWS V12.07,2013-04-23 05:23:00,
2013-04-23 01:28:00,54.1,54.1,30.13,NNW,339,14.7,28.0,100,0.00, ,,-99.99,VWS V12.07,2013-04-23 05:28:00,
2013-04-23 01:33:00,54.4,54.4,30.13,North,7,18.0,28.0,100,0.00, ,,-99.99,VWS V12.07,2013-04-23 05:33:00,
2013-04-23 01:38:00,54.1,54.1,30.13,North,357,21.5,24.0,100,0.00, ,,-99.99,VWS V12.07,2013-04-23 05:38:00,
2013-04-23 01:43:00,54.6,54.6,30.13,NNW,341,19.9,27.9,100,0.00, ,,-99.99,VWS V12.07,2013-04-23 05:43:00,
2013-04-23 01:48:00,54.4,54.4,30.13,North,2,13.0,27.9,100,0.00, ,,-99.99,VWS V12.07,2013-04-23 05:48:00,
2013-04-23 01:53:00,54.1,54.1,30.13,North,5,19.3,29.8,100,0.00, ,,-99.99,VWS V12.07,2013-04-23 05:53:00,
2013-04-23 01:58:00,54.0,54.0,30.12,NNW,347,16.3,25.9,100,0.00, ,,-99.99,VWS V12.07,2013-04-23 05:58:00,
2013-04-23 02:03:00,54.0,54.0,30.12,NNW,339,20.9,29.3,100,0.00, ,,-99.99,VWS V12.07,2013-04-23 06:03:00,
2013-04-23 02:08:00,54.3,54.3,30.12,NNW,343,15.5,29.3,100,0.00, ,,-99.99,VWS V12.07,2013-04-23 06:08:00,
2013-04-23 02:14:00,54.3,54.3,30.11,North,350,22.2,29.3,100,0.00, ,,-99.99,VWS V12.07,2013-04-23 06:14:00,
2013-04-23 02:19:00,54.1,54.1,30.11,NNW,336,16.2,26.6,100,0.00, ,,-99.99,VWS V12.07,2013-04-23 06:19:00,
2013-04-23 02:24:00,53.9,53.9,30.11,NNW,339,15.6,31.3,100,0.00, ,,-99.99,VWS V12.07,2013-04-23 06:24:00,
2013-04-23 02:29:00,54.1,54.1,30.11,North,1,20.6,32.1,100,0.00, ,,-99.99,VWS V12.07,2013-04-23 06:29:00,
2013-04-23 02:34:00,54.1,54.1,30.10,North,355,19.7,32.1,100,0.00, ,,-99.99,VWS V12.07,2013-04-23 06:34:00,
2013-04-23 02:39:00,54.1,54.1,30.10,North,353,16.2,26.5,100,0.00, ,,-99.99,VWS V12.07,2013-04-23 06:39:00,
2013-04-23 02:44:00,54.1,54.1,30.10,North,1,25.5,27.2,100,0.00, ,,-99.99,VWS V12.07,2013-04-23 06:44:00,
2013-04-23 02:49:00,54.2,54.2,30.10,NNW,347,14.4,30.6,100,0.00, ,,-99.99,VWS V12.07,2013-04-23 06:49:00,
2013-04-23 02:54:00,53.8,53.8,30.10,NNW,346,21.5,30.6,100,0.00, ,,-99.99,VWS V12.07,2013-04-23 06:54:00,
2013-04-23 02:59:00,54.2,54.2,30.10,North,360,18.5,27.7,100,0.00, ,,-99.99,VWS V12.07,2013-04-23 06:59:00,
2013-04-23 03:04:00,53.9,53.9,30.10,NW,320,14.7,31.6,100,0.00, ,,-99.99,VWS V12.07,2013-04-23 07:04:00,
2013-04-23 03:09:00,54.2,54.2,30.10,North,354,15.3,31.6,100,0.00, ,,-99.99,VWS V12.07,2013-04-23 07:09:00,
2013-04-23 03:14:00,53.5,53.5,30.10,NNW,341,11.3,31.6,100,0.00, ,,-99.99,VWS V12.07,2013-04-23 07:14:00,
2013-04-23 03:19:00,54.4,54.4,30.10,North,5,18.0,26.2,100,0.00, ,,-99.99,VWS V12.07,2013-04-23 07:19:00,
2013-04-23 03:24:00,54.2,54.2,30.10,NW,325,16.5,27.5,100,0.00, ,,-99.99,VWS V12.07,2013-04-23 07:24:00,
2013-04-23 03:29:00,54.1,54.1,30.10,NW,322,17.3,28.8,100,0.00, ,,-99.99,VWS V12.07,2013-04-23 07:29:00,
2013-04-23 03:34:00,54.4,54.4,30.10,NNW,348,15.5,28.8,100,0.00, ,,-99.99,VWS V12.07,2013-04-23 07:34:00,
2013-04-23 03:39:00,54.0,54.0,30.09,NNW,337,22.4,29.1,100,0.00, ,,-99.99,VWS V12.07,2013-04-23 07:39:00,
2013-04-23 03:44:00,54.2,54.2,30.09,North,357,13.0,29.1,100,0.00, ,,-99.99,VWS V12.07,2013-04-23 07:44:00,
2013-04-23 03:49:00,54.0,54.0,30.09,NNW,332,13.6,30.1,100,0.00, ,,-99.99,VWS V12.07,2013-04-23 07:49:00,
2013-04-23 03:54:00,53.6,53.6,30.09,NW,323,8.0,30.1,100,0.00, ,,-99.99,VWS V12.07,2013-04-23 07:54:00,
2013-04-23 03:59:00,53.5,53.5,30.10,NNW,348,21.3,30.4,100,0.00, ,,-99.99,VWS V12.07,2013-04-23 07:59:00,
2013-04-23 04:04:00,54.1,54.1,30.09,NNW,333,17.0,30.4,100,0.00, ,,-99.99,VWS V12.07,2013-04-23 08:04:00,
2013-04-23 04:09:00,53.8,53.8,30.09,NNW,346,20.3,30.9,100,0.00, ,,-99.99,VWS V12.07,2013-04-23 08:09:00,
2013-04-23 04:14:00,54.0,54.0,30.09,NNW,344,23.2,30.9,100,0.00, ,,-99.99,VWS V12.07,2013-04-23 08:14:00,
2013-04-23 04:19:00,54.0,54.0,30.09,NNW,340,14.0,27.7,100,0.00, ,,-99.99,VWS V12.07,2013-04-23 08:19:00,
2013-04-23 04:24:00,53.5,53.5,30.09,NNW,327,22.3,27.7,100,0.00, ,,-99.99,VWS V12.07,2013-04-23 08:24:00,
2013-04-23 04:29:00,53.7,53.7,30.09,North,350,17.9,28.8,100,0.00, ,,-99.99,VWS V12.07,2013-04-23 08:29:00,
2013-04-23 04:34:00,53.4,53.4,30.09,North,360,27.4,29.6,100,0.00, ,,-99.99,VWS V12.07,2013-04-23 08:34:00,
2013-04-23 04:39:00,53.6,53.6,30.10,NNW,346,16.5,27.5,100,0.00, ,,-99.99,VWS V12.07,2013-04-23 08:39:00,
2013-04-23 04:44:00,54.0,54.0,30.10,NW,316,13.2,27.5,100,0.00, ,,-99.99,VWS V12.07,2013-04-23 08:44:00,
2013-04-23 04:49:00,53.7,53.7,30.10,North,4,17.0,27.5,100,0.00, ,,-99.99,VWS V12.07,2013-04-23 08:49:00,
2013-04-23 04:54:00,54.1,54.1,30.10,NNW,336,16.4,29.1,100,0.00, ,,-99.99,VWS V12.07,2013-04-23 08:54:00,
2013-04-23 04:59:00,53.7,53.7,30.10,NNW,336,15.2,30.0,100,0.00, ,,-99.99,VWS V12.07,2013-04-23 08:59:00,
2013-04-23 05:04:00,53.6,53.6,30.10,NNW,336,16.4,30.4,100,0.00, ,,-99.99,VWS V12.07,2013-04-23 09:04:00,
2013-04-23 05:09:00,53.6,53.6,30.09,North,351,18.9,30.4,100,0.00, ,,-99.99,VWS V12.07,2013-04-23 09:09:00,
2013-04-23 05:14:00,53.4,53.4,30.10,NNW,337,20.8,30.4,100,0.00, ,,-99.99,VWS V12.07,2013-04-23 09:14:00,
2013-04-23 05:19:00,53.3,53.3,30.09,North,353,22.0,30.5,100,0.00, ,,-99.99,VWS V12.07,2013-04-23 09:19:00,
2013-04-23 05:24:00,53.4,53.4,30.09,NNW,347,22.1,32.9,100,0.00, ,,-99.99,VWS V12.07,2013-04-23 09:24:00,
2013-04-23 05:29:00,53.4,53.4,30.09,NNW,344,17.9,32.9,100,0.00, ,,-99.99,VWS V12.07,2013-04-23 09:29:00,
2013-04-23 05:34:00,53.5,53.5,30.09,NNW,344,17.5,32.9,100,0.00, ,,-99.99,VWS V12.07,2013-04-23 09:34:00,
2013-04-23 05:39:00,53.5,53.5,30.09,NNW,346,18.1,24.3,100,0.00, ,,-99.99,VWS V12.07,2013-04-23 09:39:00,
2013-04-23 05:44:00,53.8,53.8,30.10,NNW,341,17.2,28.5,100,0.00, ,,-99.99,VWS V12.07,2013-04-23 09:44:00,
2013-04-23 05:49:00,53.7,53.7,30.10,NNW,327,11.6,29.3,100,0.00, ,,-99.99,VWS V12.07,2013-04-23 09:49:00,
2013-04-23 05:54:00,53.6,53.6,30.10,NNW,330,14.2,29.3,100,0.00, ,,-99.99,VWS V12.07,2013-04-23 09:54:00,
2013-04-23 05:59:00,53.5,53.5,30.10,NW,305,15.3,24.1,100,0.00, ,,-99.99,VWS V12.07,2013-04-23 09:59:00,
2013-04-23 06:04:00,54.1,54.1,30.10,NW,320,20.1,24.1,100,0.00, ,,-99.99,VWS V12.07,2013-04-23 10:04:00,
2013-04-23 06:09:00,53.7,53.7,30.10,NNE,12,16.0,28.0,100,0.00, ,,-99.99,VWS V12.07,2013-04-23 10:09:00,
2013-04-23 06:14:00,53.7,53.7,30.10,NW,309,18.0,28.0,100,0.00, ,,-99.99,VWS V12.07,2013-04-23 10:14:00,
2013-04-23 06:19:00,53.4,53.4,30.10,NNW,346,17.3,29.5,100,0.00, ,,-99.99,VWS V12.07,2013-04-23 10:19:00,
2013-04-23 06:24:00,53.4,53.4,30.10,NW,316,18.5,29.5,100,0.00, ,,-99.99,VWS V12.07,2013-04-23 10:24:00,
2013-04-23 06:29:00,53.5,53.5,30.11,North,8,11.0,30.1,100,0.00, ,,-99.99,VWS V12.07,2013-04-23 10:29:00,
2013-04-23 06:34:00,53.6,53.6,30.11,NNW,327,20.1,30.1,100,0.00, ,,-99.99,VWS V12.07,2013-04-23 10:34:00,
2013-04-23 06:39:00,53.6,53.6,30.11,NNW,347,19.3,30.9,100,0.00, ,,-99.99,VWS V12.07,2013-04-23 10:39:00,
2013-04-23 06:44:00,53.7,53.7,30.11,NNW,344,23.2,30.9,100,0.00, ,,-99.99,VWS V12.07,2013-04-23 10:44:00,
2013-04-23 06:49:00,53.8,53.8,30.11,NNW,336,20.3,30.9,100,0.00, ,,-99.99,VWS V12.07,2013-04-23 10:49:00,
2013-04-23 06:54:00,53.5,53.5,30.11,NNW,334,15.6,30.9,100,0.00, ,,-99.99,VWS V12.07,2013-04-23 10:54:00,
2013-04-23 06:59:00,53.9,53.9,30.11,NNW,332,14.4,21.1,100,0.00, ,,-99.99,VWS V12.07,2013-04-23 10:59:00,
2013-04-23 07:04:00,53.5,53.5,30.12,NW,326,12.9,21.1,100,0.00, ,,-99.99,VWS V12.07,2013-04-23 11:04:00,
2013-04-23 07:09:00,53.7,53.7,30.12,NNW,343,14.2,22.2,100,0.00, ,,-99.99,VWS V12.07,2013-04-23 11:09:00,
2013-04-23 07:14:00,53.7,53.7,30.12,North,360,12.1,24.4,100,0.00, ,,-99.99,VWS V12.07,2013-04-23 11:14:00,
2013-04-23 07:19:00,54.0,54.0,30.12,NNW,347,17.6,20.9,100,0.00, ,,-99.99,VWS V12.07,2013-04-23 11:19:00,
2013-04-23 07:24:00,53.8,53.8,30.13,NNW,339,14.3,21.7,100,0.00, ,,-99.99,VWS V12.07,2013-04-23 11:24:00,
2013-04-23 07:29:00,53.5,53.5,30.13,NNW,343,16.9,30.5,100,0.00, ,,-99.99,VWS V12.07,2013-04-23 11:29:00,
2013-04-23 07:34:00,53.7,53.7,30.13,NNW,329,17.9,30.5,100,0.00, ,,-99.99,VWS V12.07,2013-04-23 11:34:00,
2013-04-23 07:39:00,53.7,53.7,30.13,NW,326,21.4,23.6,100,0.00, ,,-99.99,VWS V12.07,2013-04-23 11:39:00,
2013-04-23 07:45:00,53.5,53.5,30.13,NNW,336,21.7,26.1,100,0.00, ,,-99.99,VWS V12.07,2013-04-23 11:45:00,
2013-04-23 07:50:00,53.7,53.7,30.13,NNW,333,14.9,26.1,100,0.00, ,,-99.99,VWS V12.07,2013-04-23 11:50:00,
2013-04-23 07:55:00,53.5,53.5,30.13,NNW,339,14.7,26.1,100,0.00, ,,-99.99,VWS V12.07,2013-04-23 11:55:00,
2013-04-23 08:00:00,53.8,53.8,30.14,NNW,337,21.9,25.4,100,0.00, ,,-99.99,VWS V12.07,2013-04-23 12:00:00,
2013-04-23 08:05:00,53.7,53.7,30.14,North,351,15.5,25.4,100,0.00, ,,-99.99,VWS V12.07,2013-04-23 12:05:00,
2013-04-23 08:10:00,53.6,53.6,30.14,NNW,348,20.9,25.4,100,0.00, ,,-99.99,VWS V12.07,2013-04-23 12:10:00,
2013-04-23 08:15:00,53.6,53.6,30.14,NNW,346,16.0,25.4,100,0.00, ,,-99.99,VWS V12.07,2013-04-23 12:15:00,
2013-04-23 08:20:00,53.3,53.3,30.14,North,360,19.3,25.4,100,0.00, ,,-99.99,VWS V12.07,2013-04-23 12:20:00,
2013-04-23 08:25:00,53.3,53.3,30.14,North,357,17.3,26.2,100,0.00, ,,-99.99,VWS V12.07,2013-04-23 12:25:00,
2013-04-23 08:30:00,53.4,53.4,30.14,NNW,327,15.8,26.3,100,0.00, ,,-99.99,VWS V12.07,2013-04-23 12:30:00,
2013-04-23 08:35:00,53.6,53.6,30.15,NNW,343,17.0,26.3,100,0.00, ,,-99.99,VWS V12.07,2013-04-23 12:35:00,
2013-04-23 08:40:00,53.6,53.6,30.15,NW,313,21.7,23.4,100,0.00, ,,-99.99,VWS V12.07,2013-04-23 12:40:00,
2013-04-23 08:45:00,53.5,53.5,30.15,NNW,334,17.0,25.8,100,0.00, ,,-99.99,VWS V12.07,2013-04-23 12:45:00,
2013-04-23 08:50:00,53.4,53.4,30.15,NNW,348,22.5,28.1,100,0.00, ,,-99.99,VWS V12.07,2013-04-23 12:50:00,
2013-04-23 08:55:00,53.4,53.4,30.15,NNW,332,12.9,28.1,100,0.00, ,,-99.99,VWS V12.07,2013-04-23 12:55:00,
2013-04-23 09:00:00,53.5,53.5,30.15,NNW,330,16.3,24.5,100,0.00, ,,-99.99,VWS V12.07,2013-04-23 13:00:00,
2013-04-23 09:05:00,54.1,54.1,30.15,NNW,334,9.4,25.8,100,0.00, ,,-99.99,VWS V12.07,2013-04-23 13:05:00,
2013-04-23 09:10:00,53.4,53.4,30.15,NNW,337,16.0,25.8,100,0.00, ,,-99.99,VWS V12.07,2013-04-23 13:10:00,
2013-04-23 09:15:00,54.3,54.3,30.15,NNW,347,14.7,25.8,100,0.00, ,,-99.99,VWS V12.07,2013-04-23 13:15:00,
2013-04-23 09:20:00,53.7,53.7,30.15,North,351,14.1,22.4,100,0.00, ,,-99.99,VWS V12.07,2013-04-23 13:20:00,
2013-04-23 09:25:00,53.9,53.9,30.15,NNW,340,18.6,23.9,100,0.00, ,,-99.99,VWS V12.07,2013-04-23 13:25:00,
2013-04-23 09:30:00,53.6,53.6,30.15,NNW,343,14.4,25.8,100,0.00, ,,-99.99,VWS V12.07,2013-04-23 13:30:00,
2013-04-23 09:35:00,54.0,54.0,30.15,North,358,14.7,28.8,100,0.00, ,,-99.99,VWS V12.07,2013-04-23 13:35:00,
2013-04-23 09:40:00,54.1,54.1,30.15,NW,319,12.2,24.6,100,0.00, ,,-99.99,VWS V12.07,2013-04-23 13:40:00,
2013-04-23 09:45:00,54.4,54.1,30.15,North,5,23.5,28.6,99,0.00, ,,-99.99,VWS V12.07,2013-04-23 13:45:00,
2013-04-23 09:50:00,54.3,53.2,30.15,North,350,22.7,28.6,96,0.00, ,,-99.99,VWS V12.07,2013-04-23 13:50:00,
2013-04-23 09:55:00,54.6,54.2,30.15,NNW,344,17.3,28.6,98,0.00, ,,-99.99,VWS V12.07,2013-04-23 13:55:00,
2013-04-23 10:00:00,54.7,54.2,30.15,NNW,348,15.5,27.2,98,0.00, ,,-99.99,VWS V12.07,2013-04-23 14:00:00,
2013-04-23 10:05:00,54.6,54.0,30.15,NW,310,13.2,29.4,98,0.00, ,,-99.99,VWS V12.07,2013-04-23 14:05:00,
2013-04-23 10:10:00,54.7,54.0,30.15,North,360,19.0,33.1,97,0.00, ,,-99.99,VWS V12.07,2013-04-23 14:10:00,
2013-04-23 10:15:00,55.4,54.6,30.15,North,351,18.8,33.1,97,0.00, ,,-99.99,VWS V12.07,2013-04-23 14:15:00,
2013-04-23 10:20:00,55.6,54.7,30.16,NNE,15,22.2,27.0,97,0.00, ,,-99.99,VWS V12.07,2013-04-23 14:20:00,
2013-04-23 10:25:00,55.6,54.7,30.16,NNW,341,15.3,27.0,97,0.00, ,,-99.99,VWS V12.07,2013-04-23 14:25:00,
2013-04-23 10:30:00,55.9,54.9,30.16,North,2,29.0,30.0,96,0.00, ,,-99.99,VWS V12.07,2013-04-23 14:30:00,
2013-04-23 10:35:00,55.5,54.6,30.16,NNW,343,10.5,31.9,97,0.00, ,,-99.99,VWS V12.07,2013-04-23 14:35:00,
2013-04-23 10:40:00,55.4,54.2,30.16,North,354,24.2,32.4,96,0.00, ,,-99.99,VWS V12.07,2013-04-23 14:40:00,
2013-04-23 10:45:00,55.4,54.3,30.16,NNW,347,15.2,32.4,96,0.00, ,,-99.99,VWS V12.07,2013-04-23 14:45:00,
2013-04-23 10:50:00,56.1,55.0,30.16,North,353,17.9,32.4,96,0.00, ,,-99.99,VWS V12.07,2013-04-23 14:50:00,
2013-04-23 10:55:00,55.8,54.2,30.16,North,4,16.3,32.4,94,0.00, ,,-99.99,VWS V12.07,2013-04-23 14:55:00,
2013-04-23 11:00:00,56.9,55.1,30.16,NNW,348,16.2,23.3,94,0.00, ,,-99.99,VWS V12.07,2013-04-23 15:00:00,
2013-04-23 11:05:00,56.3,54.7,30.16,NNW,343,22.6,25.4,94,0.00, ,,-99.99,VWS V12.07,2013-04-23 15:05:00,
2013-04-23 11:10:00,56.5,55.1,30.16,North,350,11.1,25.4,95,0.00, ,,-99.99,VWS V12.07,2013-04-23 15:10:00,
2013-04-23 11:15:00,56.6,55.0,30.16,NNW,334,10.7,25.4,94,0.00, ,,-99.99,VWS V12.07,2013-04-23 15:15:00,
2013-04-23 11:20:00,56.3,53.8,30.16,NNW,344,14.1,28.2,91,0.00, ,,-99.99,VWS V12.07,2013-04-23 15:20:00,
2013-04-23 11:25:00,56.9,54.0,30.16,NNE,12,22.2,28.2,90,0.00, ,,-99.99,VWS V12.07,2013-04-23 15:25:00,
2013-04-23 11:30:00,57.1,54.4,30.16,North,351,9.9,28.2,91,0.00, ,,-99.99,VWS V12.07,2013-04-23 15:30:00,
2013-04-23 11:35:00,57.6,55.0,30.16,NNW,344,17.6,28.2,91,0.00, ,,-99.99,VWS V12.07,2013-04-23 15:35:00,
2013-04-23 11:40:00,57.4,54.8,30.16,NNW,334,11.7,27.7,91,0.00, ,,-99.99,VWS V12.07,2013-04-23 15:40:00,
2013-04-23 11:45:00,57.4,54.7,30.16,North,4,17.9,27.7,91,0.00, ,,-99.99,VWS V12.07,2013-04-23 15:45:00,
2013-04-23 11:50:00,57.9,54.5,30.16,North,354,11.6,27.7,88,0.00, ,,-99.99,VWS V12.07,2013-04-23 15:50:00,
2013-04-23 11:55:00,57.6,54.2,30.16,NNW,334,13.6,27.7,88,0.00, ,,-99.99,VWS V12.07,2013-04-23 15:55:00,
2013-04-23 12:00:00,57.9,55.0,30.16,NW,306,14.2,22.8,90,0.00, ,,-99.99,VWS V12.07,2013-04-23 16:00:00,
2013-04-23 12:05:00,57.9,54.7,30.16,NW,316,16.5,27.5,89,0.00, ,,-99.99,VWS V12.07,2013-04-23 16:05:00,
2013-04-23 12:10:00,57.8,53.9,30.16,North,354,25.7,29.5,87,0.00, ,,-99.99,VWS V12.07,2013-04-23 16:10:00,
2013-04-23 12:15:00,58.9,55.5,30.16,North,350,17.0,30.5,89,0.00, ,,-99.99,VWS V12.07,2013-04-23 16:15:00,
2013-04-23 12:20:00,58.3,54.4,30.16,NNW,347,17.5,27.7,87,0.00, ,,-99.99,VWS V12.07,2013-04-23 16:20:00,
2013-04-23 12:25:00,58.1,54.9,30.17,North,350,14.4,27.7,89,0.00, ,,-99.99,VWS V12.07,2013-04-23 16:25:00,
2013-04-23 12:30:00,57.8,54.6,30.17,North,351,17.7,27.7,89,0.00, ,,-99.99,VWS V12.07,2013-04-23 16:30:00,
2013-04-23 12:35:00,58.1,54.6,30.17,NNW,336,16.0,27.7,88,0.00, ,,-99.99,VWS V12.07,2013-04-23 16:35:00,
2013-04-23 12:41:00,58.2,54.3,30.17,NNW,337,13.2,25.5,87,0.00, ,,-99.99,VWS V12.07,2013-04-23 16:41:00,
2013-04-23 12:46:00,58.1,54.1,30.16,NNW,341,22.2,25.5,86,0.00, ,,-99.99,VWS V12.07,2013-04-23 16:46:00,
2013-04-23 12:51:00,58.0,54.2,30.16,North,357,15.7,25.8,87,0.00, ,,-99.99,VWS V12.07,2013-04-23 16:51:00,
2013-04-23 12:56:00,57.7,53.7,30.16,NW,325,14.3,14.7,87,0.00, ,,-99.99,VWS V12.07,2013-04-23 16:56:00,
2013-04-23 13:01:00,58.6,54.3,30.16,North,360,22.7,24.8,86,0.00, ,,-99.99,VWS V12.07,2013-04-23 17:01:00,
2013-04-23 13:06:00,58.1,54.7,30.16,NNW,346,13.2,24.8,88,0.00, ,,-99.99,VWS V12.07,2013-04-23 17:06:00,
2013-04-23 13:11:00,57.8,54.1,30.16,North,358,13.6,24.8,88,0.00, ,,-99.99,VWS V12.07,2013-04-23 17:11:00,
2013-04-23 13:16:00,57.4,54.2,30.16,North,350,13.6,13.6,89,0.00, ,,-99.99,VWS V12.07,2013-04-23 17:16:00,
2013-04-23 13:21:00,57.8,54.2,30.15,North,355,15.3,24.0,88,0.00, ,,-99.99,VWS V12.07,2013-04-23 17:21:00,
2013-04-23 13:26:00,58.4,53.9,30.15,North,357,14.0,24.6,85,0.00, ,,-99.99,VWS V12.07,2013-04-23 17:26:00,
2013-04-23 13:31:00,59.0,54.3,30.15,North,4,13.6,24.6,84,0.00, ,,-99.99,VWS V12.07,2013-04-23 17:31:00,
2013-04-23 13:36:00,58.8,54.1,30.16,North,360,18.9,21.6,84,0.00, ,,-99.99,VWS V12.07,2013-04-23 17:36:00,
2013-04-23 13:41:00,59.1,53.9,30.15,NNW,341,11.2,21.6,83,0.00, ,,-99.99,VWS V12.07,2013-04-23 17:41:00,
2013-04-23 13:46:00,58.8,54.0,30.16,NNW,343,16.0,22.2,84,0.00, ,,-99.99,VWS V12.07,2013-04-23 17:46:00,
2013-04-23 13:51:00,58.4,54.3,30.15,NNW,346,16.5,22.2,86,0.00, ,,-99.99,VWS V12.07,2013-04-23 17:51:00,
2013-04-23 13:56:00,58.6,54.4,30.16,NNW,343,15.0,15.0,86,0.00, ,,-99.99,VWS V12.07,2013-04-23 17:56:00,
2013-04-23 14:01:00,58.9,54.1,30.16,NNW,339,18.1,21.4,84,0.00, ,,-99.99,VWS V12.07,2013-04-23 18:01:00,
2013-04-23 14:06:00,58.8,53.8,30.16,North,355,14.9,21.4,84,0.00, ,,-99.99,VWS V12.07,2013-04-23 18:06:00,
2013-04-23 14:11:00,59.3,54.7,30.16,North,351,12.6,21.4,85,0.00, ,,-99.99,VWS V12.07,2013-04-23 18:11:00,
2013-04-23 14:16:00,59.9,54.7,30.16,North,355,11.2,15.9,83,0.00, ,,-99.99,VWS V12.07,2013-04-23 18:16:00,
2013-04-23 14:21:00,59.3,54.0,30.16,NNW,336,16.7,25.5,82,0.00, ,,-99.99,VWS V12.07,2013-04-23 18:21:00,
2013-04-23 14:26:00,58.9,52.8,30.16,North,5,15.6,25.5,80,0.00, ,,-99.99,VWS V12.07,2013-04-23 18:26:00,
2013-04-23 14:31:00,59.2,52.8,30.16,North,5,16.0,25.5,79,0.00, ,,-99.99,VWS V12.07,2013-04-23 18:31:00,
2013-04-23 14:36:00,59.3,54.0,30.16,NNW,346,20.1,20.8,83,0.00, ,,-99.99,VWS V12.07,2013-04-23 18:36:00,
2013-04-23 14:41:00,59.7,53.7,30.16,North,351,14.7,23.5,81,0.00, ,,-99.99,VWS V12.07,2013-04-23 18:41:00,
2013-04-23 14:46:00,59.9,52.9,30.16,NNW,346,17.7,23.5,78,0.00, ,,-99.99,VWS V12.07,2013-04-23 18:46:00,
2013-04-23 14:51:00,60.6,53.9,30.17,NNW,344,20.0,23.5,78,0.00, ,,-99.99,VWS V12.07,2013-04-23 18:51:00,
2013-04-23 14:56:00,60.3,53.7,30.17,NNW,333,16.1,21.0,79,0.00, ,,-99.99,VWS V12.07,2013-04-23 18:56:00,
2013-04-23 15:01:00,60.2,53.2,30.17,NNW,343,12.5,21.0,78,0.00, ,,-99.99,VWS V12.07,2013-04-23 19:01:00,
2013-04-23 15:06:00,60.5,53.9,30.16,NNW,346,14.2,21.0,79,0.00, ,,-99.99,VWS V12.07,2013-04-23 19:06:00,
2013-04-23 15:11:00,59.8,53.1,30.16,NNW,329,8.3,21.0,78,0.00, ,,-99.99,VWS V12.07,2013-04-23 19:11:00,
2013-04-23 15:16:00,60.6,53.8,30.17,NW,323,15.3,16.3,78,0.00, ,,-99.99,VWS V12.07,2013-04-23 19:16:00,
2013-04-23 15:21:00,60.3,53.0,30.16,NNW,343,11.1,21.3,77,0.00, ,,-99.99,VWS V12.07,2013-04-23 19:21:00,
2013-04-23 15:26:00,60.3,53.1,30.16,NNW,347,20.2,22.6,77,0.00, ,,-99.99,VWS V12.07,2013-04-23 19:26:00,
2013-04-23 15:31:00,60.5,52.9,30.16,NNW,327,19.4,23.7,76,0.00, ,,-99.99,VWS V12.07,2013-04-23 19:31:00,
2013-04-23 15:36:00,60.7,52.7,30.16,North,357,15.5,16.5,75,0.00, ,,-99.99,VWS V12.07,2013-04-23 19:36:00,
2013-04-23 15:41:00,60.7,52.5,30.15,NNE,21,15.8,21.9,74,0.00, ,,-99.99,VWS V12.07,2013-04-23 19:41:00,
2013-04-23 15:46:00,60.5,53.1,30.15,North,357,13.9,22.3,77,0.00, ,,-99.99,VWS V12.07,2013-04-23 19:46:00,
2013-04-23 15:51:00,60.9,53.6,30.15,NNE,22,8.3,22.3,77,0.00, ,,-99.99,VWS V12.07,2013-04-23 19:51:00,
2013-04-23 15:56:00,60.6,52.8,30.15,North,7,14.2,15.5,75,0.00, ,,-99.99,VWS V12.07,2013-04-23 19:56:00,
2013-04-23 16:01:00,60.4,53.2,30.14,NNW,348,16.3,26.8,77,0.00, ,,-99.99,VWS V12.07,2013-04-23 20:01:00,
2013-04-23 16:06:00,60.7,52.8,30.15,North,353,13.2,26.8,75,0.00, ,,-99.99,VWS V12.07,2013-04-23 20:06:00,
2013-04-23 16:11:00,61.2,53.1,30.15,North,7,11.6,26.8,75,0.00, ,,-99.99,VWS V12.07,2013-04-23 20:11:00,
2013-04-23 16:16:00,60.8,53.0,30.15,NNE,12,17.1,18.3,75,0.00, ,,-99.99,VWS V12.07,2013-04-23 20:16:00,
2013-04-23 16:21:00,61.3,52.5,30.15,NNW,343,12.4,23.3,73,0.00, ,,-99.99,VWS V12.07,2013-04-23 20:21:00,
2013-04-23 16:26:00,60.9,52.3,30.15,North,360,13.8,23.3,73,0.00, ,,-99.99,VWS V12.07,2013-04-23 20:26:00,
2013-04-23 16:31:00,61.0,52.8,30.14,North,1,11.6,23.3,74,0.00, ,,-99.99,VWS V12.07,2013-04-23 20:31:00,
2013-04-23 16:36:00,61.0,52.0,30.14,North,4,16.9,16.9,72,0.00, ,,-99.99,VWS V12.07,2013-04-23 20:36:00,
2013-04-23 16:42:00,60.8,51.8,30.15,NNE,24,8.7,23.1,72,0.00, ,,-99.99,VWS V12.07,2013-04-23 20:42:00,
2013-04-23 16:47:00,60.7,52.1,30.14,NNW,341,15.7,23.1,73,0.00, ,,-99.99,VWS V12.07,2013-04-23 20:47:00,
2013-04-23 16:53:00,60.7,51.8,30.15,North,4,21.5,23.1,72,0.00, ,,-99.99,VWS V12.07,2013-04-23 20:53:00,
2013-04-23 16:58:00,60.5,51.6,30.14,North,1,19.4,20.4,72,0.00, ,,-99.99,VWS V12.07,2013-04-23 20:58:00,
2013-04-23 17:03:00,60.7,52.6,30.14,North,1,11.2,21.3,74,0.00, ,,-99.99,VWS V12.07,2013-04-23 21:03:00,
2013-04-23 17:08:00,60.7,52.4,30.14,North,4,18.1,21.3,74,0.00, ,,-99.99,VWS V12.07,2013-04-23 21:08:00,
2013-04-23 17:13:00,61.2,53.2,30.14,North,358,17.0,21.3,75,0.00, ,,-99.99,VWS V12.07,2013-04-23 21:13:00,
2013-04-23 17:18:00,60.8,52.8,30.13,North,358,11.0,17.3,75,0.00, ,,-99.99,VWS V12.07,2013-04-23 21:18:00,
2013-04-23 17:23:00,60.7,52.2,30.13,NE,36,15.5,19.4,74,0.00, ,,-99.99,VWS V12.07,2013-04-23 21:23:00,
2013-04-23 17:28:00,60.8,52.4,30.13,NNE,18,15.3,20.8,74,0.00, ,,-99.99,VWS V12.07,2013-04-23 21:28:00,
2013-04-23 17:33:00,60.3,51.8,30.14,North,10,13.7,20.8,74,0.00, ,,-99.99,VWS V12.07,2013-04-23 21:33:00,
2013-04-23 17:38:00,60.7,52.7,30.14,NNE,26,7.4,16.0,75,0.00, ,,-99.99,VWS V12.07,2013-04-23 21:38:00,
2013-04-23 17:43:00,60.9,53.1,30.14,NNW,343,9.3,16.5,76,0.00, ,,-99.99,VWS V12.07,2013-04-23 21:43:00,
2013-04-23 17:48:00,60.6,52.6,30.13,NE,48,13.5,18.4,75,0.00, ,,-99.99,VWS V12.07,2013-04-23 21:48:00,
2013-04-23 17:53:00,61.0,53.1,30.14,NE,45,8.0,18.4,75,0.00, ,,-99.99,VWS V12.07,2013-04-23 21:53:00,
2013-04-23 17:58:00,61.1,53.2,30.14,ESE,107,10.4,11.2,75,0.00, ,,-99.99,VWS V12.07,2013-04-23 21:58:00,
2013-04-23 18:03:00,60.8,53.5,30.14,NNE,28,12.5,14.7,77,0.00, ,,-99.99,VWS V12.07,2013-04-23 22:03:00,
2013-04-23 18:08:00,60.1,52.9,30.14,NNE,24,9.6,18.0,77,0.00, ,,-99.99,VWS V12.07,2013-04-23 22:08:00,
2013-04-23 18:13:00,60.4,53.2,30.15,NNE,21,13.6,18.0,77,0.00, ,,-99.99,VWS V12.07,2013-04-23 22:13:00,
2013-04-23 18:18:00,60.5,53.6,30.15,NE,56,9.0,14.9,78,0.00, ,,-99.99,VWS V12.07,2013-04-23 22:18:00,
2013-04-23 18:23:00,59.5,53.1,30.15,NNE,24,9.4,15.7,79,0.00, ,,-99.99,VWS V12.07,2013-04-23 22:23:00,
2013-04-23 18:28:00,60.0,53.7,30.15,NNE,32,6.2,16.5,80,0.00, ,,-99.99,VWS V12.07,2013-04-23 22:28:00,
2013-04-23 18:33:00,59.9,53.6,30.15,NE,39,9.1,16.5,80,0.00, ,,-99.99,VWS V12.07,2013-04-23 22:33:00,
2013-04-23 18:38:00,60.4,54.1,30.15,ENE,67,5.2,9.9,80,0.00, ,,-99.99,VWS V12.07,2013-04-23 22:38:00,
2013-04-23 18:43:00,60.3,54.0,30.15,ENE,66,4.7,11.5,80,0.00, ,,-99.99,VWS V12.07,2013-04-23 22:43:00,
2013-04-23 18:48:00,59.5,53.1,30.15,East,98,9.6,11.7,79,0.00, ,,-99.99,VWS V12.07,2013-04-23 22:48:00,
2013-04-23 18:53:00,59.4,53.4,30.15,ENE,74,9.5,13.9,80,0.00, ,,-99.99,VWS V12.07,2013-04-23 22:53:00,
2013-04-23 18:58:00,59.6,53.7,30.15,NNE,26,10.2,11.1,81,0.00, ,,-99.99,VWS V12.07,2013-04-23 22:58:00,
2013-04-23 19:03:00,59.7,53.3,30.16,ENE,60,7.1,11.1,79,0.00, ,,-99.99,VWS V12.07,2013-04-23 23:03:00,
2013-04-23 19:08:00,59.6,53.7,30.16,NNE,32,6.8,11.1,81,0.00, ,,-99.99,VWS V12.07,2013-04-23 23:08:00,
2013-04-23 19:13:00,59.4,53.7,30.16,NNE,26,5.8,12.4,81,0.00, ,,-99.99,VWS V12.07,2013-04-23 23:13:00,
2013-04-23 19:18:00,58.8,53.5,30.16,NNE,24,9.5,15.0,83,0.00, ,,-99.99,VWS V12.07,2013-04-23 23:18:00,
2013-04-23 19:23:00,59.1,53.9,30.16,NNE,26,8.7,15.0,83,0.00, ,,-99.99,VWS V12.07,2013-04-23 23:23:00,
2013-04-23 19:28:00,59.2,53.8,30.16,NE,55,7.5,15.0,82,0.00, ,,-99.99,VWS V12.07,2013-04-23 23:28:00,
2013-04-23 19:33:00,58.0,52.4,30.16,NE,42,7.3,15.5,82,0.00, ,,-99.99,VWS V12.07,2013-04-23 23:33:00,
2013-04-23 19:38:00,58.0,52.7,30.16,ENE,64,7.6,13.0,83,0.00, ,,-99.99,VWS V12.07,2013-04-23 23:38:00,
2013-04-23 19:43:00,57.7,52.7,30.16,East,91,9.9,13.2,84,0.00, ,,-99.99,VWS V12.07,2013-04-23 23:43:00,
2013-04-23 19:48:00,58.1,53.5,30.16,NE,52,10.4,13.6,85,0.00, ,,-99.99,VWS V12.07,2013-04-23 23:48:00,
2013-04-23 19:53:00,57.9,53.1,30.16,ESE,105,9.0,13.6,84,0.00, ,,-99.99,VWS V12.07,2013-04-23 23:53:00,
2013-04-23 19:58:00,57.5,53.0,30.16,NE,50,7.6,11.8,85,0.00, ,,-99.99,VWS V12.07,2013-04-23 23:58:00,
2013-04-23 20:03:00,58.0,53.7,30.17,East,81,5.0,11.8,86,0.00, ,,-99.99,VWS V12.07,2013-04-24 00:03:00,
2013-04-23 20:08:00,57.6,53.3,30.17,NNE,24,5.8,11.8,86,0.00, ,,-99.99,VWS V12.07,2013-04-24 00:08:00,
2013-04-23 20:13:00,58.3,54.0,30.17,East,97,5.8,11.8,85,0.00, ,,-99.99,VWS V12.07,2013-04-24 00:13:00,
2013-04-23 20:18:00,57.4,53.2,30.17,ENE,76,6.4,11.4,86,0.00, ,,-99.99,VWS V12.07,2013-04-24 00:18:00,
2013-04-23 20:23:00,57.4,53.5,30.18,ENE,76,3.5,11.4,87,0.00, ,,-99.99,VWS V12.07,2013-04-24 00:23:00,
2013-04-23 20:28:00,57.3,53.5,30.17,ENE,69,8.7,11.4,87,0.00, ,,-99.99,VWS V12.07,2013-04-24 00:28:00,
2013-04-23 20:33:00,57.3,53.6,30.17,ENE,59,6.0,11.4,87,0.00, ,,-99.99,VWS V12.07,2013-04-24 00:33:00,
2013-04-23 20:38:00,57.2,53.6,30.17,East,83,9.6,13.1,88,0.00, ,,-99.99,VWS V12.07,2013-04-24 00:38:00,
2013-04-23 20:43:00,56.9,53.0,30.17,East,85,10.6,13.5,87,0.00, ,,-99.99,VWS V12.07,2013-04-24 00:43:00,
2013-04-23 20:48:00,56.2,52.6,30.18,NE,53,6.5,13.5,88,0.00, ,,-99.99,VWS V12.07,2013-04-24 00:48:00,
2013-04-23 20:53:00,56.7,53.3,30.18,East,88,8.1,13.5,88,0.00, ,,-99.99,VWS V12.07,2013-04-24 00:53:00,
2013-04-23 20:58:00,56.4,53.3,30.18,East,80,7.0,10.4,89,0.00, ,,-99.99,VWS V12.07,2013-04-24 00:58:00,
2013-04-23 21:03:00,56.5,53.5,30.18,East,91,6.6,10.9,90,0.00, ,,-99.99,VWS V12.07,2013-04-24 01:03:00,
2013-04-23 21:08:00,56.3,53.2,30.18,East,101,8.7,10.9,89,0.00, ,,-99.99,VWS V12.07,2013-04-24 01:08:00,
2013-04-23 21:13:00,56.2,53.1,30.18,ENE,78,9.3,10.9,89,0.00, ,,-99.99,VWS V12.07,2013-04-24 01:13:00,
2013-04-23 21:18:00,56.4,53.3,30.18,East,87,8.3,9.1,89,0.00, ,,-99.99,VWS V12.07,2013-04-24 01:18:00,
2013-04-23 21:23:00,55.8,52.7,30.18,ENE,74,7.1,10.4,89,0.00, ,,-99.99,VWS V12.07,2013-04-24 01:23:00,
2013-04-23 21:28:00,56.9,53.4,30.19,ENE,70,7.1,11.3,88,0.00, ,,-99.99,VWS V12.07,2013-04-24 01:28:00,
2013-04-23 21:33:00,57.2,53.3,30.19,ENE,64,8.0,11.3,87,0.00, ,,-99.99,VWS V12.07,2013-04-24 01:33:00,
2013-04-23 21:38:00,56.3,52.7,30.19,ENE,66,6.8,7.7,88,0.00, ,,-99.99,VWS V12.07,2013-04-24 01:38:00,
2013-04-23 21:43:00,56.4,53.3,30.19,NE,42,4.8,8.6,89,0.00, ,,-99.99,VWS V12.07,2013-04-24 01:43:00,
2013-04-23 21:49:00,56.2,53.3,30.19,ENE,64,4.7,8.6,90,0.00, ,,-99.99,VWS V12.07,2013-04-24 01:49:00,
2013-04-23 21:54:00,56.2,53.5,30.19,ENE,73,5.7,8.6,90,0.00, ,,-99.99,VWS V12.07,2013-04-24 01:54:00,
2013-04-23 21:59:00,56.3,53.7,30.19,NE,56,5.2,5.9,91,0.00, ,,-99.99,VWS V12.07,2013-04-24 01:59:00,
2013-04-23 22:04:00,55.9,53.4,30.19,ENE,69,6.0,7.6,91,0.00, ,,-99.99,VWS V12.07,2013-04-24 02:04:00,
2013-04-23 22:09:00,56.0,53.6,30.19,ENE,73,6.7,7.6,92,0.00, ,,-99.99,VWS V12.07,2013-04-24 02:09:00,
2013-04-23 22:14:00,55.9,53.4,30.19,East,101,5.5,8.9,91,0.00, ,,-99.99,VWS V12.07,2013-04-24 02:14:00,
2013-04-23 22:19:00,55.7,53.2,30.19,ENE,74,0.0,7.5,91,0.00, ,,-99.99,VWS V12.07,2013-04-24 02:19:00,
2013-04-23 22:24:00,55.6,53.1,30.19,ENE,70,7.7,8.3,91,0.00, ,,-99.99,VWS V12.07,2013-04-24 02:24:00,
2013-04-23 22:29:00,55.9,53.4,30.20,East,90,5.1,8.3,91,0.00, ,,-99.99,VWS V12.07,2013-04-24 02:29:00,
2013-04-23 22:34:00,55.3,52.9,30.20,East,83,8.0,8.5,92,0.00, ,,-99.99,VWS V12.07,2013-04-24 02:34:00,
2013-04-23 22:39:00,56.3,53.9,30.20,ENE,63,0.0,7.0,92,0.00, ,,-99.99,VWS V12.07,2013-04-24 02:39:00,
2013-04-23 22:44:00,56.9,53.9,30.20,ENE,69,5.3,7.0,90,0.00, ,,-99.99,VWS V12.07,2013-04-24 02:44:00,
2013-04-23 22:49:00,56.4,53.0,30.20,East,81,4.7,7.6,88,0.00, ,,-99.99,VWS V12.07,2013-04-24 02:49:00,
2013-04-23 22:54:00,55.9,53.2,30.20,ENE,67,6.2,8.2,91,0.00, ,,-99.99,VWS V12.07,2013-04-24 02:54:00,
2013-04-23 22:59:00,55.6,53.1,30.19,East,91,6.6,7.0,91,0.00, ,,-99.99,VWS V12.07,2013-04-24 02:59:00,
2013-04-23 23:04:00,55.6,53.2,30.19,ENE,78,5.8,9.0,92,0.00, ,,-99.99,VWS V12.07,2013-04-24 03:04:00,
2013-04-23 23:09:00,55.1,52.8,30.19,East,87,8.9,9.1,92,0.00, ,,-99.99,VWS V12.07,2013-04-24 03:09:00,
2013-04-23 23:14:00,55.4,53.2,30.19,East,97,6.6,9.1,92,0.00, ,,-99.99,VWS V12.07,2013-04-24 03:14:00,
2013-04-23 23:21:00,55.2,53.1,30.19,East,87,4.3,8.2,93,0.00, ,,-99.99,VWS V12.07,2013-04-24 03:21:00,
2013-04-23 23:26:00,55.2,53.1,30.19,East,80,4.7,8.2,93,0.00, ,,-99.99,VWS V12.07,2013-04-24 03:26:00,
2013-04-23 23:31:00,54.6,52.5,30.19,ENE,69,7.8,8.2,93,0.00, ,,-99.99,VWS V12.07,2013-04-24 03:31:00,
2013-04-23 23:36:00,55.1,52.9,30.19,ENE,67,5.1,5.7,92,0.00, ,,-99.99,VWS V12.07,2013-04-24 03:36:00,
2013-04-23 23:42:00,55.1,53.0,30.19,ENE,69,6.1,8.5,92,0.00, ,,-99.99,VWS V12.07,2013-04-24 03:42:00,
2013-04-23 23:47:00,55.0,53.0,30.18,ENE,76,7.0,8.5,93,0.00, ,,-99.99,VWS V12.07,2013-04-24 03:47:00,
2013-04-23 23:52:00,55.0,53.0,30.18,ENE,67,5.8,8.5,93,0.00, ,,-99.99,VWS V12.07,2013-04-24 03:52:00,
2013-04-23 23:57:00,54.9,53.0,30.18,East,87,4.5,6.9,93,0.00, ,,-99.99,VWS V12.07,2013-04-24 03:57:00,